BTK6760 WADD-WAAA
Flight info
| Callsign | BTK6760 |
|---|---|
| Flight time | 1h 8m |
| Altitude | 35000 |
| Route | PEDET W41 LIPOT |
| Aircraft | A320/M-SDE3FGHIRWY/LB1 |
Departure
| Time | 2026-04-20 18:44 |
|---|---|
| Airport | Denpasar I Gusti Ngurah Rai International Airport (WADD) |
Arrival
| Time | 2026-04-20 19:52 |
|---|---|
| Airport | Sultan Hasanuddin International Airport (WAAA) |
| Time | Latitude | Longitude | Altitude | Speed | Heading |
|---|---|---|---|---|---|
| 2026-04-20 18:20 | -8.74563 | 115.16340 | 32 ft | 0 kts | 358° |
| 2026-04-20 18:34 | -8.74570 | 115.16340 | 33 ft | 3 kts | 358° |
| 2026-04-20 18:35 | -8.74591 | 115.16341 | 33 ft | 3 kts | 358° |
| 2026-04-20 18:35 | -8.74608 | 115.16342 | 33 ft | 2 kts | 358° |
| 2026-04-20 18:35 | -8.74628 | 115.16343 | 30 ft | 3 kts | 358° |
| 2026-04-20 18:35 | -8.74648 | 115.16343 | 32 ft | 3 kts | 358° |
| 2026-04-20 18:36 | -8.74667 | 115.16344 | 30 ft | 3 kts | 7° |
| 2026-04-20 18:36 | -8.74684 | 115.16339 | 31 ft | 3 kts | 47° |
| 2026-04-20 18:36 | -8.74694 | 115.16322 | 31 ft | 3 kts | 78° |
| 2026-04-20 18:36 | -8.74697 | 115.16303 | 29 ft | 3 kts | 87° |
| 2026-04-20 18:37 | -8.74697 | 115.16296 | 29 ft | 0 kts | 87° |
| 2026-04-20 18:38 | -8.74697 | 115.16305 | 33 ft | 6 kts | 88° |
| 2026-04-20 18:39 | -8.74693 | 115.16403 | 33 ft | 20 kts | 88° |
| 2026-04-20 18:39 | -8.74687 | 115.16551 | 32 ft | 22 kts | 88° |
| 2026-04-20 18:39 | -8.74681 | 115.16711 | 32 ft | 24 kts | 87° |
| 2026-04-20 18:39 | -8.74673 | 115.16883 | 32 ft | 25 kts | 88° |
| 2026-04-20 18:40 | -8.74665 | 115.17065 | 32 ft | 27 kts | 87° |
| 2026-04-20 18:40 | -8.74658 | 115.17246 | 32 ft | 26 kts | 88° |
| 2026-04-20 18:40 | -8.74651 | 115.17417 | 32 ft | 21 kts | 88° |
| 2026-04-20 18:40 | -8.74644 | 115.17573 | 32 ft | 23 kts | 88° |
| 2026-04-20 18:41 | -8.74639 | 115.17699 | 31 ft | 16 kts | 88° |
| 2026-04-20 18:41 | -8.74635 | 115.17806 | 33 ft | 15 kts | 88° |
| 2026-04-20 18:41 | -8.74631 | 115.17904 | 33 ft | 13 kts | 88° |
| 2026-04-20 18:41 | -8.74627 | 115.17991 | 32 ft | 12 kts | 88° |
| 2026-04-20 18:42 | -8.74631 | 115.18068 | 32 ft | 10 kts | 110° |
| 2026-04-20 18:42 | -8.74687 | 115.18095 | 31 ft | 10 kts | 181° |
| 2026-04-20 18:42 | -8.74757 | 115.18095 | 29 ft | 11 kts | 188° |
| 2026-04-20 18:42 | -8.74788 | 115.18045 | 30 ft | 8 kts | 270° |
| 2026-04-20 18:43 | -8.74790 | 115.18016 | 30 ft | 0 kts | 268° |
| 2026-04-20 18:43 | -8.74790 | 115.18015 | 30 ft | 2 kts | 268° |
| 2026-04-20 18:43 | -8.74801 | 115.17739 | 28 ft | 77 kts | 267° |
| 2026-04-20 18:43 | -8.74831 | 115.16983 | 29 ft | 136 kts | 268° |
| 2026-04-20 18:44 | -8.74871 | 115.15879 | 176 ft | 168 kts | 271° |
| 2026-04-20 18:44 | -8.74862 | 115.14696 | 839 ft | 169 kts | 271° |
| 2026-04-20 18:44 | -8.74827 | 115.13515 | 1554 ft | 168 kts | 271° |
| 2026-04-20 18:44 | -8.74791 | 115.12306 | 2042 ft | 180 kts | 270° |
| 2026-04-20 18:45 | -8.74757 | 115.10964 | 2338 ft | 202 kts | 270° |
| 2026-04-20 18:45 | -8.74725 | 115.09479 | 2625 ft | 226 kts | 270° |
| 2026-04-20 18:45 | -8.74694 | 115.07806 | 3022 ft | 250 kts | 270° |
| 2026-04-20 18:45 | -8.74664 | 115.05973 | 3543 ft | 268 kts | 270° |
| 2026-04-20 18:46 | -8.74684 | 115.04065 | 4333 ft | 274 kts | 261° |
| 2026-04-20 18:46 | -8.75340 | 115.02263 | 5124 ft | 276 kts | 234° |
| 2026-04-20 18:46 | -8.76699 | 115.00905 | 5952 ft | 277 kts | 210° |
| 2026-04-20 18:46 | -8.78489 | 115.00212 | 6737 ft | 277 kts | 187° |
| 2026-04-20 18:47 | -8.80405 | 115.00304 | 7530 ft | 278 kts | 163° |
| 2026-04-20 18:47 | -8.82128 | 115.01182 | 8322 ft | 281 kts | 140° |
| 2026-04-20 18:47 | -8.83353 | 115.02716 | 9090 ft | 285 kts | 116° |
| 2026-04-20 18:47 | -8.83917 | 115.04648 | 9850 ft | 289 kts | 102° |
| 2026-04-20 18:48 | -8.84315 | 115.06676 | 10330 ft | 304 kts | 102° |
| 2026-04-20 18:48 | -8.84740 | 115.08854 | 10512 ft | 327 kts | 102° |
| 2026-04-20 18:48 | -8.85192 | 115.11175 | 10843 ft | 343 kts | 102° |
| 2026-04-20 18:48 | -8.85628 | 115.13568 | 11431 ft | 349 kts | 97° |
| 2026-04-20 18:49 | -8.85588 | 115.16037 | 12051 ft | 355 kts | 81° |
| 2026-04-20 18:49 | -8.84801 | 115.18412 | 12692 ft | 361 kts | 62° |
| 2026-04-20 18:49 | -8.83286 | 115.20452 | 13309 ft | 366 kts | 49° |
| 2026-04-20 18:49 | -8.81555 | 115.22362 | 13923 ft | 369 kts | 48° |
| 2026-04-20 18:50 | -8.79799 | 115.24272 | 14492 ft | 372 kts | 48° |
| 2026-04-20 18:50 | -8.78025 | 115.26193 | 15058 ft | 375 kts | 48° |
| 2026-04-20 18:50 | -8.76238 | 115.28130 | 15619 ft | 378 kts | 48° |
| 2026-04-20 18:50 | -8.74441 | 115.30083 | 16170 ft | 381 kts | 48° |
| 2026-04-20 18:51 | -8.72632 | 115.32052 | 16722 ft | 384 kts | 48° |
| 2026-04-20 18:51 | -8.70814 | 115.34039 | 17244 ft | 387 kts | 48° |
| 2026-04-20 18:51 | -8.68981 | 115.36046 | 17759 ft | 390 kts | 48° |
| 2026-04-20 18:51 | -8.67134 | 115.38070 | 18253 ft | 393 kts | 48° |
| 2026-04-20 18:52 | -8.65270 | 115.40109 | 18688 ft | 396 kts | 48° |
| 2026-04-20 18:52 | -8.63392 | 115.42159 | 19118 ft | 399 kts | 48° |
| 2026-04-20 18:52 | -8.61522 | 115.44194 | 19536 ft | 402 kts | 48° |
| 2026-04-20 18:52 | -8.59590 | 115.46299 | 19960 ft | 405 kts | 48° |
| 2026-04-20 18:53 | -8.57694 | 115.48367 | 20361 ft | 408 kts | 48° |
| 2026-04-20 18:53 | -8.55735 | 115.50506 | 20772 ft | 411 kts | 48° |
| 2026-04-20 18:53 | -8.53787 | 115.52631 | 21165 ft | 414 kts | 48° |
| 2026-04-20 18:53 | -8.51824 | 115.54773 | 21550 ft | 417 kts | 48° |
| 2026-04-20 18:54 | -8.49849 | 115.56928 | 21922 ft | 420 kts | 48° |
| 2026-04-20 18:54 | -8.47858 | 115.59102 | 22301 ft | 423 kts | 47° |
| 2026-04-20 18:54 | -8.45850 | 115.61290 | 22670 ft | 426 kts | 47° |
| 2026-04-20 18:54 | -8.43827 | 115.63491 | 23036 ft | 429 kts | 47° |
| 2026-04-20 18:55 | -8.41821 | 115.65677 | 23384 ft | 432 kts | 47° |
| 2026-04-20 18:55 | -8.39775 | 115.67911 | 23703 ft | 434 kts | 47° |
| 2026-04-20 18:55 | -8.37691 | 115.70186 | 24034 ft | 436 kts | 47° |
| 2026-04-20 18:55 | -8.35627 | 115.72436 | 24356 ft | 438 kts | 47° |
| 2026-04-20 18:56 | -8.33553 | 115.74695 | 24687 ft | 439 kts | 47° |
| 2026-04-20 18:56 | -8.31471 | 115.76961 | 25003 ft | 441 kts | 47° |
| 2026-04-20 18:56 | -8.29381 | 115.79234 | 25325 ft | 442 kts | 47° |
| 2026-04-20 18:56 | -8.27285 | 115.81517 | 25631 ft | 444 kts | 47° |
| 2026-04-20 18:57 | -8.25212 | 115.83777 | 25942 ft | 446 kts | 47° |
| 2026-04-20 18:57 | -8.23100 | 115.86075 | 26245 ft | 447 kts | 47° |
| 2026-04-20 18:57 | -8.20978 | 115.88377 | 26560 ft | 449 kts | 47° |
| 2026-04-20 18:57 | -8.18848 | 115.90689 | 26849 ft | 450 kts | 47° |
| 2026-04-20 18:58 | -8.16714 | 115.93012 | 27152 ft | 452 kts | 47° |
| 2026-04-20 18:58 | -8.14570 | 115.95343 | 27456 ft | 454 kts | 47° |
| 2026-04-20 18:58 | -8.12418 | 115.97680 | 27750 ft | 455 kts | 47° |
| 2026-04-20 18:58 | -8.10264 | 116.00024 | 28045 ft | 457 kts | 47° |
| 2026-04-20 18:59 | -8.08101 | 116.02379 | 28342 ft | 458 kts | 47° |
| 2026-04-20 18:59 | -8.05931 | 116.04741 | 28627 ft | 460 kts | 47° |
| 2026-04-20 18:59 | -8.03752 | 116.07109 | 28881 ft | 461 kts | 47° |
| 2026-04-20 18:59 | -8.01567 | 116.09482 | 29123 ft | 463 kts | 47° |
| 2026-04-20 19:00 | -7.99367 | 116.11868 | 29382 ft | 464 kts | 47° |
| 2026-04-20 19:00 | -7.97164 | 116.14257 | 29630 ft | 466 kts | 46° |
| 2026-04-20 19:00 | -7.94953 | 116.16657 | 29885 ft | 468 kts | 47° |
| 2026-04-20 19:00 | -7.92737 | 116.19066 | 30104 ft | 469 kts | 47° |
| 2026-04-20 19:01 | -7.90517 | 116.21482 | 30311 ft | 471 kts | 47° |
| 2026-04-20 19:01 | -7.88290 | 116.23904 | 30584 ft | 470 kts | 47° |
| 2026-04-20 19:01 | -7.86064 | 116.26319 | 30887 ft | 469 kts | 47° |
| 2026-04-20 19:01 | -7.83847 | 116.28722 | 31218 ft | 468 kts | 47° |
| 2026-04-20 19:02 | -7.81635 | 116.31121 | 31538 ft | 466 kts | 47° |
| 2026-04-20 19:02 | -7.79431 | 116.33512 | 31849 ft | 465 kts | 47° |
| 2026-04-20 19:02 | -7.77228 | 116.35902 | 32167 ft | 465 kts | 47° |
| 2026-04-20 19:02 | -7.75028 | 116.38287 | 32475 ft | 464 kts | 47° |
| 2026-04-20 19:03 | -7.72835 | 116.40662 | 32793 ft | 463 kts | 47° |
| 2026-04-20 19:03 | -7.70639 | 116.43038 | 33114 ft | 462 kts | 47° |
| 2026-04-20 19:03 | -7.68453 | 116.45406 | 33434 ft | 461 kts | 47° |
| 2026-04-20 19:03 | -7.66299 | 116.47739 | 33755 ft | 460 kts | 47° |
| 2026-04-20 19:04 | -7.64122 | 116.50097 | 34046 ft | 460 kts | 47° |
| 2026-04-20 19:04 | -7.61944 | 116.52455 | 34322 ft | 459 kts | 47° |
| 2026-04-20 19:04 | -7.59771 | 116.54809 | 34592 ft | 458 kts | 47° |
| 2026-04-20 19:04 | -7.57599 | 116.57161 | 34794 ft | 459 kts | 47° |
| 2026-04-20 19:05 | -7.53255 | 116.61860 | 34852 ft | 457 kts | 47° |
| 2026-04-20 19:05 | -7.48962 | 116.66590 | 34852 ft | 457 kts | 49° |
| 2026-04-20 19:06 | -7.44868 | 116.71487 | 34849 ft | 457 kts | 51° |
| 2026-04-20 19:06 | -7.40839 | 116.76426 | 34852 ft | 456 kts | 51° |
| 2026-04-20 19:07 | -7.36766 | 116.81337 | 34852 ft | 456 kts | 50° |
| 2026-04-20 19:07 | -7.32658 | 116.86211 | 34853 ft | 456 kts | 50° |
| 2026-04-20 19:08 | -7.26500 | 116.93531 | 34858 ft | 457 kts | 50° |
| 2026-04-20 19:09 | -7.22402 | 116.98416 | 34856 ft | 456 kts | 50° |
| 2026-04-20 19:09 | -7.18309 | 117.03301 | 34856 ft | 456 kts | 50° |
| 2026-04-20 19:10 | -7.14216 | 117.08180 | 34856 ft | 456 kts | 50° |
| 2026-04-20 19:10 | -7.10122 | 117.13054 | 34851 ft | 456 kts | 51° |
| 2026-04-20 19:11 | -7.06019 | 117.17920 | 34847 ft | 456 kts | 51° |
| 2026-04-20 19:11 | -7.02609 | 117.21962 | 34846 ft | 456 kts | 51° |
| 2026-04-20 19:12 | -6.98518 | 117.26833 | 34843 ft | 455 kts | 51° |
| 2026-04-20 19:12 | -6.93766 | 117.32492 | 34841 ft | 455 kts | 51° |
| 2026-04-20 19:13 | -6.89666 | 117.37357 | 34843 ft | 456 kts | 51° |
| 2026-04-20 19:13 | -6.86233 | 117.41437 | 34845 ft | 456 kts | 51° |
| 2026-04-20 19:14 | -6.82132 | 117.46315 | 34846 ft | 456 kts | 51° |
| 2026-04-20 19:14 | -6.78033 | 117.51188 | 34846 ft | 456 kts | 51° |
| 2026-04-20 19:15 | -6.73929 | 117.56053 | 34846 ft | 456 kts | 50° |
| 2026-04-20 19:15 | -6.69823 | 117.60924 | 34844 ft | 456 kts | 51° |
| 2026-04-20 19:16 | -6.65291 | 117.65396 | 34845 ft | 458 kts | 41° |
| 2026-04-20 19:16 | -6.60438 | 117.69547 | 34849 ft | 458 kts | 41° |
| 2026-04-20 19:17 | -6.55612 | 117.73679 | 34852 ft | 458 kts | 41° |
| 2026-04-20 19:17 | -6.50756 | 117.77832 | 34853 ft | 458 kts | 41° |
| 2026-04-20 19:18 | -6.45900 | 117.81985 | 34852 ft | 458 kts | 41° |
| 2026-04-20 19:18 | -6.41046 | 117.86144 | 34852 ft | 458 kts | 41° |
| 2026-04-20 19:19 | -6.36199 | 117.90306 | 34852 ft | 458 kts | 41° |
| 2026-04-20 19:19 | -6.31346 | 117.94459 | 34852 ft | 458 kts | 41° |
| 2026-04-20 19:20 | -6.26487 | 117.98609 | 34853 ft | 458 kts | 41° |
| 2026-04-20 19:20 | -6.21632 | 118.02762 | 34854 ft | 458 kts | 41° |
| 2026-04-20 19:21 | -6.16771 | 118.06912 | 34858 ft | 458 kts | 41° |
| 2026-04-20 19:21 | -6.11913 | 118.11062 | 34857 ft | 458 kts | 41° |
| 2026-04-20 19:22 | -6.07095 | 118.15183 | 34857 ft | 458 kts | 41° |
| 2026-04-20 19:22 | -6.02251 | 118.19327 | 34859 ft | 457 kts | 41° |
| 2026-04-20 19:23 | -5.97408 | 118.23467 | 34858 ft | 457 kts | 41° |
| 2026-04-20 19:23 | -5.92569 | 118.27601 | 34855 ft | 456 kts | 41° |
| 2026-04-20 19:24 | -5.87730 | 118.31723 | 34847 ft | 456 kts | 41° |
| 2026-04-20 19:24 | -5.82893 | 118.35846 | 34845 ft | 456 kts | 41° |
| 2026-04-20 19:25 | -5.78058 | 118.39968 | 34849 ft | 456 kts | 41° |
| 2026-04-20 19:25 | -5.73226 | 118.44086 | 34851 ft | 456 kts | 41° |
| 2026-04-20 19:26 | -5.68402 | 118.48207 | 34850 ft | 456 kts | 41° |
| 2026-04-20 19:26 | -5.63794 | 118.52564 | 34841 ft | 455 kts | 48° |
| 2026-04-20 19:27 | -5.59482 | 118.57227 | 34840 ft | 456 kts | 48° |
| 2026-04-20 19:27 | -5.55159 | 118.61885 | 34840 ft | 456 kts | 48° |
| 2026-04-20 19:28 | -5.50831 | 118.66539 | 34840 ft | 456 kts | 48° |
| 2026-04-20 19:28 | -5.48673 | 118.68860 | 34539 ft | 453 kts | 48° |
| 2026-04-20 19:28 | -5.46537 | 118.71159 | 33562 ft | 450 kts | 48° |
| 2026-04-20 19:28 | -5.44398 | 118.73463 | 32173 ft | 453 kts | 48° |
| 2026-04-20 19:29 | -5.42104 | 118.75643 | 30786 ft | 457 kts | 38° |
| 2026-04-20 19:29 | -5.39507 | 118.77441 | 29771 ft | 451 kts | 34° |
| 2026-04-20 19:29 | -5.36914 | 118.79178 | 28654 ft | 445 kts | 35° |
| 2026-04-20 19:29 | -5.34358 | 118.80902 | 27577 ft | 439 kts | 34° |
| 2026-04-20 19:30 | -5.31837 | 118.82605 | 26532 ft | 435 kts | 34° |
| 2026-04-20 19:30 | -5.29345 | 118.84286 | 25526 ft | 430 kts | 34° |
| 2026-04-20 19:30 | -5.26872 | 118.85951 | 24550 ft | 426 kts | 34° |
| 2026-04-20 19:30 | -5.24423 | 118.87599 | 23603 ft | 422 kts | 34° |
| 2026-04-20 19:31 | -5.21996 | 118.89232 | 22558 ft | 418 kts | 34° |
| 2026-04-20 19:31 | -5.19598 | 118.90847 | 21606 ft | 412 kts | 34° |
| 2026-04-20 19:31 | -5.17237 | 118.92437 | 20705 ft | 405 kts | 34° |
| 2026-04-20 19:31 | -5.14784 | 118.93778 | 19854 ft | 399 kts | 22° |
| 2026-04-20 19:32 | -5.12150 | 118.94575 | 19047 ft | 393 kts | 11° |
| 2026-04-20 19:32 | -5.09446 | 118.94828 | 18245 ft | 388 kts | 0° |
| 2026-04-20 19:32 | -5.06749 | 118.94824 | 17484 ft | 388 kts | 0° |
| 2026-04-20 19:32 | -5.04065 | 118.94824 | 17042 ft | 384 kts | 0° |
| 2026-04-20 19:33 | -5.01401 | 118.94827 | 16576 ft | 381 kts | 0° |
| 2026-04-20 19:33 | -4.98763 | 118.94829 | 16118 ft | 378 kts | 0° |
| 2026-04-20 19:33 | -4.96143 | 118.94832 | 15667 ft | 375 kts | 0° |
| 2026-04-20 19:33 | -4.93559 | 118.94835 | 14937 ft | 369 kts | 1° |
| 2026-04-20 19:34 | -4.91008 | 118.94839 | 14128 ft | 365 kts | 0° |
| 2026-04-20 19:34 | -4.88484 | 118.94841 | 13293 ft | 361 kts | 0° |
| 2026-04-20 19:34 | -4.85993 | 118.94839 | 12453 ft | 356 kts | 0° |
| 2026-04-20 19:34 | -4.83592 | 118.95068 | 11586 ft | 352 kts | 18° |
| 2026-04-20 19:35 | -4.81521 | 118.96316 | 11185 ft | 345 kts | 43° |
| 2026-04-20 19:35 | -4.79810 | 118.97909 | 11054 ft | 325 kts | 44° |
| 2026-04-20 19:35 | -4.78205 | 118.99407 | 10780 ft | 308 kts | 44° |
| 2026-04-20 19:35 | -4.76656 | 119.00852 | 10249 ft | 301 kts | 44° |
| 2026-04-20 19:36 | -4.75158 | 119.02298 | 9660 ft | 297 kts | 50° |
| 2026-04-20 19:36 | -4.74111 | 119.04047 | 9024 ft | 291 kts | 69° |
| 2026-04-20 19:36 | -4.73425 | 119.05950 | 8339 ft | 289 kts | 70° |
| 2026-04-20 19:36 | -4.72745 | 119.07852 | 7921 ft | 288 kts | 70° |
| 2026-04-20 19:37 | -4.72074 | 119.09722 | 7762 ft | 279 kts | 70° |
| 2026-04-20 19:37 | -4.71413 | 119.11565 | 7924 ft | 283 kts | 70° |
| 2026-04-20 19:37 | -4.70746 | 119.13425 | 7963 ft | 284 kts | 70° |
| 2026-04-20 19:37 | -4.70077 | 119.15284 | 7961 ft | 284 kts | 70° |
| 2026-04-20 19:38 | -4.69406 | 119.17145 | 7961 ft | 284 kts | 70° |
| 2026-04-20 19:38 | -4.68736 | 119.19004 | 7962 ft | 284 kts | 70° |
| 2026-04-20 19:38 | -4.68066 | 119.20863 | 7962 ft | 284 kts | 70° |
| 2026-04-20 19:38 | -4.67395 | 119.22722 | 7961 ft | 284 kts | 70° |
| 2026-04-20 19:39 | -4.66724 | 119.24582 | 7964 ft | 284 kts | 70° |
| 2026-04-20 19:39 | -4.66053 | 119.26441 | 7970 ft | 283 kts | 70° |
| 2026-04-20 19:39 | -4.65382 | 119.28297 | 7968 ft | 283 kts | 70° |
| 2026-04-20 19:39 | -4.64711 | 119.30154 | 7968 ft | 284 kts | 70° |
| 2026-04-20 19:40 | -4.64040 | 119.32013 | 7925 ft | 283 kts | 70° |
| 2026-04-20 19:40 | -4.63374 | 119.33860 | 7551 ft | 281 kts | 70° |
| 2026-04-20 19:40 | -4.62713 | 119.35698 | 7168 ft | 280 kts | 70° |
| 2026-04-20 19:40 | -4.62057 | 119.37526 | 6805 ft | 278 kts | 70° |
| 2026-04-20 19:41 | -4.61407 | 119.39343 | 6437 ft | 276 kts | 70° |
| 2026-04-20 19:41 | -4.60770 | 119.41128 | 6072 ft | 275 kts | 70° |
| 2026-04-20 19:41 | -4.60301 | 119.42964 | 5966 ft | 273 kts | 86° |
| 2026-04-20 19:41 | -4.60542 | 119.44846 | 5977 ft | 275 kts | 109° |
| 2026-04-20 19:42 | -4.61484 | 119.46549 | 5976 ft | 277 kts | 122° |
| 2026-04-20 19:42 | -4.62530 | 119.48141 | 5985 ft | 277 kts | 122° |
| 2026-04-20 19:42 | -4.63596 | 119.49754 | 5986 ft | 277 kts | 122° |
| 2026-04-20 19:42 | -4.64661 | 119.51366 | 5989 ft | 277 kts | 122° |
| 2026-04-20 19:43 | -4.65724 | 119.52976 | 5994 ft | 277 kts | 122° |
| 2026-04-20 19:43 | -4.66786 | 119.54583 | 5991 ft | 277 kts | 122° |
| 2026-04-20 19:43 | -4.67849 | 119.56195 | 5990 ft | 277 kts | 122° |
| 2026-04-20 19:43 | -4.68908 | 119.57807 | 5991 ft | 277 kts | 122° |
| 2026-04-20 19:44 | -4.69967 | 119.59420 | 5992 ft | 277 kts | 122° |
| 2026-04-20 19:44 | -4.71033 | 119.61017 | 5994 ft | 271 kts | 126° |
| 2026-04-20 19:44 | -4.72332 | 119.62290 | 5996 ft | 254 kts | 143° |
| 2026-04-20 19:44 | -4.73856 | 119.63122 | 5723 ft | 253 kts | 158° |
| 2026-04-20 19:45 | -4.75606 | 119.63527 | 5053 ft | 262 kts | 171° |
| 2026-04-20 19:45 | -4.77414 | 119.63763 | 4386 ft | 262 kts | 171° |
| 2026-04-20 19:45 | -4.79207 | 119.64002 | 3946 ft | 253 kts | 171° |
| 2026-04-20 19:45 | -4.80891 | 119.64229 | 3805 ft | 235 kts | 171° |
| 2026-04-20 19:46 | -4.82458 | 119.64440 | 3692 ft | 219 kts | 171° |
| 2026-04-20 19:46 | -4.83910 | 119.64635 | 3613 ft | 202 kts | 171° |
| 2026-04-20 19:46 | -4.85271 | 119.64820 | 3528 ft | 195 kts | 171° |
| 2026-04-20 19:46 | -4.86614 | 119.65004 | 3433 ft | 195 kts | 170° |
| 2026-04-20 19:47 | -4.87956 | 119.65189 | 3337 ft | 194 kts | 171° |
| 2026-04-20 19:47 | -4.89296 | 119.65339 | 3245 ft | 194 kts | 179° |
| 2026-04-20 19:47 | -4.90623 | 119.65089 | 3148 ft | 197 kts | 200° |
| 2026-04-20 19:47 | -4.91815 | 119.64446 | 2987 ft | 197 kts | 209° |
| 2026-04-20 19:48 | -4.92996 | 119.63761 | 2822 ft | 196 kts | 208° |
| 2026-04-20 19:48 | -4.94188 | 119.63073 | 2706 ft | 194 kts | 208° |
| 2026-04-20 19:48 | -4.95352 | 119.62402 | 2544 ft | 190 kts | 209° |
| 2026-04-20 19:48 | -4.96468 | 119.61758 | 2336 ft | 186 kts | 208° |
| 2026-04-20 19:49 | -4.97573 | 119.61122 | 2123 ft | 177 kts | 210° |
| 2026-04-20 19:49 | -4.98591 | 119.60535 | 1893 ft | 164 kts | 210° |
| 2026-04-20 19:49 | -4.99562 | 119.59976 | 1692 ft | 158 kts | 209° |
| 2026-04-20 19:49 | -5.00488 | 119.59442 | 1491 ft | 148 kts | 209° |
| 2026-04-20 19:50 | -5.01365 | 119.58937 | 1303 ft | 143 kts | 209° |
| 2026-04-20 19:50 | -5.02223 | 119.58442 | 1117 ft | 142 kts | 209° |
| 2026-04-20 19:50 | -5.03074 | 119.57952 | 928 ft | 141 kts | 209° |
| 2026-04-20 19:50 | -5.03922 | 119.57463 | 737 ft | 140 kts | 208° |
| 2026-04-20 19:51 | -5.04766 | 119.56977 | 556 ft | 140 kts | 208° |
| 2026-04-20 19:51 | -5.05613 | 119.56488 | 375 ft | 141 kts | 208° |
| 2026-04-20 19:51 | -5.06465 | 119.56001 | 169 ft | 141 kts | 209° |
| 2026-04-20 19:51 | -5.07305 | 119.55511 | 42 ft | 134 kts | 209° |
| 2026-04-20 19:52 | -5.07930 | 119.55153 | 41 ft | 62 kts | 210° |
| 2026-04-20 19:52 | -5.08124 | 119.55039 | 40 ft | 20 kts | 221° |
| 2026-04-20 19:52 | -5.08130 | 119.54950 | 40 ft | 11 kts | 301° |
| 2026-04-20 19:52 | -5.08098 | 119.54900 | 41 ft | 6 kts | 303° |
| 2026-04-20 19:53 | -5.08076 | 119.54867 | 41 ft | 5 kts | 301° |
| 2026-04-20 19:53 | -5.08061 | 119.54838 | 41 ft | 4 kts | 297° |
| 2026-04-20 19:53 | -5.08049 | 119.54814 | 41 ft | 3 kts | 297° |
| 2026-04-20 19:53 | -5.08039 | 119.54795 | 41 ft | 3 kts | 297° |
| 2026-04-20 19:54 | -5.08030 | 119.54780 | 39 ft | 4 kts | 301° |
| 2026-04-20 19:54 | -5.08004 | 119.54737 | 41 ft | 5 kts | 302° |
| 2026-04-20 19:54 | -5.07982 | 119.54713 | 41 ft | 4 kts | 323° |
| 2026-04-20 19:54 | -5.07939 | 119.54717 | 40 ft | 7 kts | 26° |
| 2026-04-20 19:55 | -5.07900 | 119.54739 | 41 ft | 6 kts | 30° |
| 2026-04-20 19:55 | -5.07867 | 119.54758 | 41 ft | 5 kts | 30° |
| 2026-04-20 19:55 | -5.07829 | 119.54781 | 41 ft | 7 kts | 30° |
| 2026-04-20 19:55 | -5.07810 | 119.54791 | 41 ft | 1 kts | 30° |
| 2026-04-20 19:56 | -5.07799 | 119.54795 | 41 ft | 2 kts | 2° |
| 2026-04-20 19:56 | -5.07777 | 119.54773 | 39 ft | 4 kts | 295° |
| 2026-04-20 19:56 | -5.07773 | 119.54763 | 41 ft | 2 kts | 301° |
| 2026-04-20 19:56 | -5.07770 | 119.54758 | 41 ft | 0 kts | 304° |
| 2026-04-20 19:57 | -5.07765 | 119.54751 | 41 ft | 1 kts | 300° |
| 2026-04-20 19:57 | -5.07762 | 119.54745 | 41 ft | 1 kts | 300° |
| 2026-04-20 19:57 | -5.07760 | 119.54743 | 41 ft | 0 kts | 300° |
| 2026-04-20 19:57 | -5.07760 | 119.54742 | 41 ft | 0 kts | 300° |